Minerva, Texas
Current Conditions -  °F | °C
As of 1:15 PM on Monday 22 Dec 2014 (Local Time) from KT35 Reporting Station
Clear Clear  
Wind Chill: 68°   Ceiling: Unl
Heat Index: 68°   Visibility: 10mi
Dew Point: 53°   Wind: 12mph
Humidity: 58%   Direction: 220°SW
Pressure: 29.63"   Gusts: 16mph
Location:  30.6499°N, 96.9973°W
Report Text: KT35 221915Z AUTO 22010G14KT 10SM CLR 20/12 A2963 RMK AO2 T02000115
Loading
Personal Weather Stations






























Interactive Weather Map New forecast layout! Learn more

10-Day Weather Forecast

Advertisements
Track Severe Weather on mobile